createdAt,value
2023-11-14T00:00:06.166Z,1.10
2023-11-14T00:02:34.447Z,1.10
2023-11-14T00:05:01.778Z,1.15
2023-11-14T00:07:28.785Z,0.95
2023-11-14T00:09:55.729Z,1.23
2023-11-14T00:12:22.601Z,1.00
2023-11-14T00:14:50.358Z,0.90
2023-11-14T00:17:17.555Z,0.90
2023-11-14T00:19:44.699Z,1.00
2023-11-14T00:22:15.534Z,1.20
2023-11-14T00:24:42.636Z,0.95
2023-11-14T00:27:09.518Z,0.80
2023-11-14T00:29:36.809Z,1.00
2023-11-14T00:32:04.068Z,0.90
2023-11-14T00:34:31.321Z,1.00
2023-11-14T00:36:58.348Z,1.00
2023-11-14T00:39:25.205Z,1.20
2023-11-14T00:41:55.729Z,0.90
2023-11-14T00:44:23.324Z,0.90
2023-11-14T00:46:50.603Z,0.70
2023-11-14T00:49:17.597Z,0.60
2023-11-14T00:51:44.416Z,0.70
2023-11-14T00:54:11.312Z,0.63
2023-11-14T00:56:39.506Z,0.75
2023-11-14T00:59:07.349Z,0.60
2023-11-14T01:01:34.296Z,0.60
2023-11-14T01:04:02.030Z,0.50
2023-11-14T01:06:29.001Z,0.50
2023-11-14T01:08:56.620Z,0.77
2023-11-14T01:11:24.459Z,0.60
2023-11-14T01:13:51.535Z,0.50
2023-11-14T01:16:18.598Z,0.70
2023-11-14T01:18:45.630Z,0.60
2023-11-14T01:21:17.554Z,0.50
2023-11-14T01:23:45.387Z,0.90
2023-11-14T01:26:12.847Z,1.00
2023-11-14T01:28:41.375Z,0.63
2023-11-14T01:31:08.320Z,0.60
2023-11-14T01:33:35.269Z,0.70
2023-11-14T01:36:02.190Z,0.60
2023-11-14T01:38:29.065Z,0.68
2023-11-14T01:40:55.983Z,0.70
2023-11-14T01:43:22.874Z,0.50
2023-11-14T01:45:50.041Z,0.70
2023-11-14T01:48:17.034Z,0.53
2023-11-14T01:50:44.032Z,0.50
2023-11-14T01:53:11.158Z,0.60
2023-11-14T01:55:39.016Z,0.50
2023-11-14T01:58:06.003Z,0.75
2023-11-14T02:00:33.841Z,0.50
2023-11-14T02:03:01.243Z,0.50
2023-11-14T02:05:28.959Z,0.47
2023-11-14T02:07:56.087Z,0.60
2023-11-14T02:10:22.989Z,0.60
2023-11-14T02:12:49.978Z,0.70
2023-11-14T02:15:16.941Z,0.60
2023-11-14T02:17:45.189Z,0.50
2023-11-14T02:20:12.589Z,0.50
2023-11-14T02:22:40.257Z,0.50
2023-11-14T02:25:08.577Z,0.50
2023-11-14T02:27:37.237Z,0.50
2023-11-14T02:30:04.732Z,0.50
2023-11-14T02:32:32.120Z,0.50
2023-11-14T02:34:59.090Z,0.43
2023-11-14T02:37:26.169Z,0.60
2023-11-14T02:39:53.136Z,0.60
2023-11-14T02:42:20.204Z,0.40
2023-11-14T02:44:47.099Z,0.80
2023-11-14T02:47:14.234Z,0.80
2023-11-14T02:49:46.852Z,0.75
2023-11-14T02:52:13.801Z,0.60
2023-11-14T02:54:40.641Z,0.70
2023-11-14T02:57:09.186Z,0.50
2023-11-14T02:59:36.702Z,0.60
2023-11-14T03:02:05.502Z,0.50
2023-11-14T03:04:32.559Z,0.60
2023-11-14T03:06:59.446Z,0.50
2023-11-14T03:09:26.335Z,0.55
2023-11-14T03:11:53.257Z,0.50
2023-11-14T03:14:21.119Z,0.50
2023-11-14T03:16:49.589Z,0.50
2023-11-14T03:19:16.550Z,0.60
2023-11-14T03:21:44.880Z,0.40
2023-11-14T03:24:14.859Z,0.50
2023-11-14T03:26:41.752Z,0.50
2023-11-14T03:29:11.738Z,0.50
2023-11-14T03:31:39.877Z,0.65
2023-11-14T03:34:07.181Z,0.55
2023-11-14T03:36:34.389Z,0.50
2023-11-14T03:39:01.329Z,0.50
2023-11-14T03:41:28.198Z,0.50
2023-11-14T03:43:55.124Z,0.60
2023-11-14T03:46:22.105Z,0.50
2023-11-14T03:48:48.958Z,0.50
2023-11-14T03:51:15.889Z,0.50
2023-11-14T03:53:45.436Z,0.60
2023-11-14T03:56:12.475Z,0.90
2023-11-14T03:58:42.634Z,0.50
2023-11-14T04:01:09.603Z,0.55
2023-11-14T04:03:38.567Z,0.60
2023-11-14T04:06:05.574Z,0.50
2023-11-14T04:08:33.412Z,0.50
2023-11-14T04:11:00.288Z,0.40
2023-11-14T04:13:27.208Z,0.50
2023-11-14T04:15:54.114Z,0.60
2023-11-14T04:18:21.074Z,0.50
2023-11-14T04:20:47.976Z,0.50
2023-11-14T04:23:15.144Z,0.50
2023-11-14T04:25:42.047Z,0.55
2023-11-14T04:28:09.716Z,0.50
2023-11-14T04:30:36.614Z,0.80
2023-11-14T04:33:03.628Z,0.50
2023-11-14T04:35:30.784Z,0.50
2023-11-14T04:37:58.039Z,0.50
2023-11-14T04:40:25.053Z,0.60
2023-11-14T04:42:53.086Z,0.60
2023-11-14T04:45:20.885Z,0.50
2023-11-14T04:47:47.780Z,0.70
2023-11-14T04:50:14.802Z,0.60
2023-11-14T04:52:41.717Z,0.70
2023-11-14T04:55:09.031Z,0.70
2023-11-14T04:57:35.897Z,0.82
2023-11-14T05:00:05.498Z,0.80
2023-11-14T05:02:32.464Z,0.70
2023-11-14T05:04:59.585Z,0.80
2023-11-14T05:07:26.424Z,0.90
2023-11-14T05:09:53.433Z,0.75
2023-11-14T05:12:20.249Z,0.70
2023-11-14T05:14:47.291Z,0.70
2023-11-14T05:17:14.158Z,1.00
2023-11-14T05:19:46.253Z,0.70
2023-11-14T05:22:14.675Z,0.90
2023-11-14T05:24:41.547Z,0.80
2023-11-14T05:27:08.748Z,0.80
2023-11-14T05:29:37.529Z,0.80
2023-11-14T05:32:05.108Z,0.90
2023-11-14T05:34:32.129Z,0.80
2023-11-14T05:36:58.935Z,0.80
2023-11-14T05:39:25.807Z,0.90
2023-11-14T05:41:52.759Z,1.00
2023-11-14T05:44:19.904Z,0.70
2023-11-14T05:46:46.807Z,0.85
2023-11-14T05:49:13.731Z,0.90
2023-11-14T05:51:41.231Z,1.10
2023-11-14T05:54:08.800Z,1.00
2023-11-14T05:56:35.646Z,1.00
2023-11-14T05:59:02.598Z,1.10
2023-11-14T06:01:29.476Z,1.20
2023-11-14T06:03:56.886Z,0.80
2023-11-14T06:06:23.814Z,1.08
2023-11-14T06:08:50.745Z,0.90
2023-11-14T06:11:17.648Z,0.90
2023-11-14T06:13:47.708Z,1.10
2023-11-14T06:16:14.747Z,0.73
2023-11-14T06:18:44.511Z,0.80
2023-11-14T06:21:11.783Z,0.80
2023-11-14T06:23:38.877Z,0.90
2023-11-14T06:26:06.499Z,0.90
2023-11-14T06:28:33.918Z,0.98
2023-11-14T06:31:00.798Z,0.70
2023-11-14T06:33:33.233Z,1.10
2023-11-14T06:36:00.524Z,0.82
2023-11-14T06:38:29.031Z,1.02
2023-11-14T06:40:57.183Z,0.90
2023-11-14T06:43:24.114Z,1.00
2023-11-14T06:45:51.140Z,0.70
2023-11-14T06:48:18.337Z,0.93
2023-11-14T06:50:46.134Z,0.90
2023-11-14T06:53:14.051Z,1.05
2023-11-14T06:55:41.503Z,1.00
2023-11-14T06:58:08.993Z,0.90
2023-11-14T07:00:36.786Z,1.13
2023-11-14T07:03:04.677Z,1.10
2023-11-14T07:05:31.974Z,1.00
2023-11-14T07:07:59.310Z,0.75
2023-11-14T07:10:26.237Z,0.82
2023-11-14T07:12:53.287Z,1.00
2023-11-14T07:15:22.200Z,0.75
2023-11-14T07:17:50.893Z,0.80
2023-11-14T07:20:22.249Z,0.93
2023-11-14T07:22:50.098Z,1.00
2023-11-14T07:25:17.465Z,1.10
2023-11-14T07:27:47.332Z,0.98
2023-11-14T07:30:14.336Z,0.90
2023-11-14T07:32:42.183Z,1.10
2023-11-14T07:35:11.757Z,0.90
2023-11-14T07:37:39.109Z,0.90
2023-11-14T07:40:07.645Z,0.90
2023-11-14T07:42:34.778Z,0.80
2023-11-14T07:45:01.815Z,0.90
2023-11-14T07:47:29.464Z,0.95
2023-11-14T07:49:56.550Z,1.00
2023-11-14T07:52:23.382Z,0.80
2023-11-14T07:54:50.902Z,1.00
2023-11-14T07:57:19.654Z,1.10
2023-11-14T07:59:46.585Z,1.30
2023-11-14T08:02:13.442Z,1.00
2023-11-14T08:04:41.896Z,1.00
2023-11-14T08:07:10.786Z,0.88
2023-11-14T08:09:37.761Z,1.10
2023-11-14T08:12:05.075Z,0.80
2023-11-14T08:14:32.287Z,0.93
2023-11-14T08:16:59.352Z,1.00
2023-11-14T08:19:26.327Z,1.15
2023-11-14T08:21:54.026Z,1.10
2023-11-14T08:24:20.999Z,0.90
2023-11-14T08:26:47.856Z,1.00
2023-11-14T08:29:14.788Z,1.10
2023-11-14T08:31:43.468Z,1.10
2023-11-14T08:34:10.361Z,0.90
2023-11-14T08:36:37.273Z,1.10
2023-11-14T08:39:04.250Z,1.10
2023-11-14T08:41:31.413Z,1.20
2023-11-14T08:43:58.607Z,0.90
2023-11-14T08:46:26.324Z,1.20
2023-11-14T08:48:53.983Z,0.80
2023-11-14T08:51:22.356Z,0.90
2023-11-14T08:53:49.269Z,1.10
2023-11-14T08:56:16.229Z,0.90
2023-11-14T08:58:43.288Z,1.30
2023-11-14T09:01:12.839Z,1.20
2023-11-14T09:03:41.408Z,0.98
2023-11-14T09:06:09.387Z,0.90
2023-11-14T09:08:37.321Z,0.90
2023-11-14T09:11:05.465Z,1.10
2023-11-14T09:13:32.371Z,1.25
2023-11-14T09:15:59.234Z,0.95
2023-11-14T09:18:26.167Z,1.05
2023-11-14T09:20:54.362Z,1.10
2023-11-14T09:23:21.298Z,0.88
2023-11-14T09:25:49.196Z,1.02
2023-11-14T09:28:16.333Z,0.80
2023-11-14T09:30:43.624Z,1.10
2023-11-14T09:33:11.112Z,0.90
2023-11-14T09:35:38.098Z,1.00
2023-11-14T09:38:06.474Z,1.10
2023-11-14T09:40:33.617Z,0.90
2023-11-14T09:43:00.483Z,1.10
2023-11-14T09:45:28.679Z,1.30
2023-11-14T09:47:56.007Z,0.70
2023-11-14T09:50:23.201Z,1.23
2023-11-14T09:52:51.439Z,0.98
2023-11-14T09:55:18.424Z,1.10
2023-11-14T09:57:49.732Z,0.90
2023-11-14T10:00:19.254Z,1.20
2023-11-14T10:02:46.982Z,1.20
2023-11-14T10:05:16.809Z,0.93
2023-11-14T10:07:44.838Z,1.00
2023-11-14T10:10:12.985Z,1.10
2023-11-14T10:12:40.932Z,1.02
2023-11-14T10:15:08.838Z,1.23
2023-11-14T10:17:47.444Z,1.07
2023-11-14T10:20:15.523Z,0.93
2023-11-14T10:22:49.427Z,1.00
2023-11-14T10:25:25.091Z,0.70
2023-11-14T10:28:01.223Z,0.93
2023-11-14T10:30:50.147Z,0.80
2023-11-14T10:33:18.065Z,0.90
2023-11-14T10:35:46.575Z,0.93
2023-11-14T10:38:19.084Z,0.98
2023-11-14T10:40:51.498Z,0.90
2023-11-14T10:43:36.105Z,0.90
2023-11-14T10:46:14.980Z,0.80
2023-11-14T10:48:43.250Z,1.10
2023-11-14T10:51:12.962Z,1.00
2023-11-14T10:53:40.975Z,0.90
2023-11-14T10:56:09.778Z,1.10
2023-11-14T10:58:38.061Z,0.93
2023-11-14T11:01:06.934Z,0.90
2023-11-14T11:03:34.718Z,0.70
2023-11-14T11:06:02.510Z,0.90
2023-11-14T11:08:29.458Z,0.80
2023-11-14T11:10:57.817Z,0.90
2023-11-14T11:13:28.099Z,1.00
2023-11-14T11:15:56.719Z,0.80
2023-11-14T11:18:35.279Z,0.90
2023-11-14T11:21:12.989Z,0.90
2023-11-14T11:24:26.807Z,0.70
2023-11-14T11:27:18.912Z,0.73
2023-11-14T11:29:55.769Z,0.90
2023-11-14T11:32:28.281Z,1.10
2023-11-14T11:35:19.023Z,0.95
2023-11-14T11:37:57.599Z,0.88
2023-11-14T11:40:33.303Z,1.00
2023-11-14T11:43:17.969Z,1.00
2023-11-14T11:45:50.702Z,0.90
2023-11-14T11:48:28.247Z,0.80
2023-11-14T11:50:55.529Z,1.00
2023-11-14T11:53:41.922Z,1.10
2023-11-14T11:56:13.085Z,1.10
2023-11-14T11:58:49.721Z,0.73
2023-11-14T12:01:16.758Z,0.82
2023-11-14T12:03:44.133Z,1.00
2023-11-14T12:06:13.453Z,0.90
2023-11-14T12:08:41.019Z,1.00
2023-11-14T12:11:15.779Z,1.00
2023-11-14T12:13:46.821Z,1.13
2023-11-14T12:16:15.241Z,1.00
2023-11-14T12:18:42.362Z,1.00
2023-11-14T12:21:09.637Z,1.10
2023-11-14T12:23:36.660Z,1.02
2023-11-14T12:26:03.926Z,1.00
2023-11-14T12:28:40.714Z,1.40
2023-11-14T12:31:09.991Z,1.10
2023-11-14T12:33:55.100Z,1.00
2023-11-14T12:36:26.854Z,1.05
2023-11-14T12:38:55.454Z,1.10
2023-11-14T12:41:30.453Z,1.40
2023-11-14T12:44:06.184Z,1.30
2023-11-14T12:46:37.830Z,1.30
2023-11-14T12:49:12.857Z,1.58
2023-11-14T12:51:51.525Z,1.23
2023-11-14T12:54:22.875Z,1.50
2023-11-14T12:56:51.079Z,2.80
2023-11-14T12:59:20.337Z,1.95
2023-11-14T13:01:49.801Z,2.75
2023-11-14T13:04:17.339Z,1.40
2023-11-14T13:06:46.956Z,1.90
2023-11-14T13:09:17.049Z,1.58
2023-11-14T13:11:44.347Z,1.10
2023-11-14T13:14:12.182Z,1.40
2023-11-14T13:16:40.105Z,1.60
2023-11-14T13:19:07.175Z,1.30
2023-11-14T13:21:34.818Z,1.73
2023-11-14T13:24:03.743Z,1.67
2023-11-14T13:26:31.254Z,1.40
2023-11-14T13:28:58.216Z,1.00
2023-11-14T13:31:25.309Z,1.40
2023-11-14T13:33:52.717Z,1.30
2023-11-14T13:36:21.259Z,1.30
2023-11-14T13:38:48.641Z,1.40
2023-11-14T13:41:16.578Z,1.30
2023-11-14T13:43:44.632Z,0.90
2023-11-14T13:46:23.397Z,1.20
2023-11-14T13:48:56.010Z,1.20
2023-11-14T13:51:23.474Z,1.10
2023-11-14T13:53:51.684Z,1.00
2023-11-14T13:56:18.879Z,1.45
2023-11-14T13:58:46.315Z,1.40
2023-11-14T14:01:13.970Z,1.30
2023-11-14T14:03:41.649Z,1.10
2023-11-14T14:06:09.927Z,1.40
2023-11-14T14:08:37.754Z,1.02
2023-11-14T14:11:08.283Z,1.10
2023-11-14T14:13:36.133Z,1.08
2023-11-14T14:16:08.784Z,0.98
2023-11-14T14:18:36.561Z,0.77
2023-11-14T14:21:05.040Z,0.90
2023-11-14T14:23:33.046Z,0.90
2023-11-14T14:26:05.939Z,1.10
2023-11-14T14:28:35.912Z,1.10
2023-11-14T14:31:06.392Z,1.30
2023-11-14T14:33:33.464Z,1.40
2023-11-14T14:36:00.599Z,1.45
2023-11-14T14:38:27.627Z,2.22
2023-11-14T14:40:54.891Z,1.90
2023-11-14T14:43:24.561Z,2.20
2023-11-14T14:45:55.007Z,1.50
2023-11-14T14:48:23.930Z,1.42
2023-11-14T14:50:54.131Z,1.10
2023-11-14T14:53:23.910Z,1.00
2023-11-14T14:55:51.477Z,1.00
2023-11-14T14:58:20.385Z,1.02
2023-11-14T15:00:47.627Z,1.05
2023-11-14T15:03:21.266Z,1.00
2023-11-14T15:05:52.841Z,0.90
2023-11-14T15:08:20.534Z,0.70
2023-11-14T15:10:48.368Z,0.80
2023-11-14T15:13:15.296Z,0.90
2023-11-14T15:15:42.235Z,1.00
2023-11-14T15:18:09.192Z,1.00
2023-11-14T15:20:36.300Z,0.90
2023-11-14T15:23:04.597Z,1.10
2023-11-14T15:25:34.310Z,1.90
2023-11-14T15:28:01.806Z,1.63
2023-11-14T15:30:28.781Z,4.47
2023-11-14T15:32:56.552Z,4.15
2023-11-14T15:35:23.617Z,2.25
2023-11-14T15:37:51.734Z,1.77
2023-11-14T15:40:19.596Z,1.40
2023-11-14T15:42:46.884Z,1.30
2023-11-14T15:45:13.990Z,1.30
2023-11-14T15:47:40.933Z,1.90
2023-11-14T15:50:08.255Z,1.70
2023-11-14T15:52:35.244Z,1.30
2023-11-14T15:55:06.063Z,1.40
2023-11-14T15:57:33.482Z,1.30
2023-11-14T16:00:00.537Z,1.20
2023-11-14T16:02:27.538Z,0.80
2023-11-14T16:04:54.484Z,1.27
2023-11-14T16:07:21.448Z,1.30
2023-11-14T16:09:48.473Z,1.48
2023-11-14T16:12:15.340Z,1.42
2023-11-14T16:14:42.308Z,4.18
2023-11-14T16:17:09.306Z,3.80
2023-11-14T16:19:38.506Z,4.88
2023-11-14T16:22:06.636Z,2.85
2023-11-14T16:24:34.015Z,1.80
2023-11-14T16:27:01.962Z,0.90
2023-11-14T16:29:29.135Z,0.80
2023-11-14T16:31:56.664Z,0.93
2023-11-14T16:34:23.940Z,0.80
2023-11-14T16:36:50.990Z,0.70
2023-11-14T16:39:18.183Z,0.90
2023-11-14T16:41:45.433Z,0.70
2023-11-14T16:44:12.568Z,0.60
2023-11-14T16:46:40.245Z,0.70
2023-11-14T16:49:07.527Z,0.80
2023-11-14T16:51:35.216Z,0.60
2023-11-14T16:54:03.133Z,0.60
2023-11-14T16:56:30.436Z,0.60
2023-11-14T16:59:00.304Z,0.60
2023-11-14T17:01:28.519Z,0.70
2023-11-14T17:03:59.100Z,0.75
2023-11-14T17:06:26.408Z,0.80
2023-11-14T17:08:53.466Z,0.70
2023-11-14T17:11:20.470Z,0.63
2023-11-14T17:13:47.733Z,0.75
2023-11-14T17:16:14.882Z,0.60
2023-11-14T17:18:42.095Z,0.60
2023-11-14T17:21:10.509Z,0.68
2023-11-14T17:23:39.001Z,0.80
2023-11-14T17:26:07.354Z,0.80
2023-11-14T17:28:37.396Z,0.70
2023-11-14T17:31:05.117Z,0.80
2023-11-14T17:33:32.030Z,0.90
2023-11-14T17:35:59.342Z,0.70
2023-11-14T17:38:27.367Z,0.70
2023-11-14T17:40:54.374Z,1.00
2023-11-14T17:43:21.395Z,0.60
2023-11-14T17:45:48.870Z,0.73
2023-11-14T17:48:16.109Z,0.90
2023-11-14T17:50:47.038Z,1.10
2023-11-14T17:53:14.945Z,0.80
2023-11-14T17:55:42.011Z,0.80
2023-11-14T17:58:08.985Z,0.70
2023-11-14T18:00:36.437Z,0.60
2023-11-14T18:03:04.085Z,0.80
2023-11-14T18:05:31.532Z,0.70
2023-11-14T18:08:05.614Z,0.80
2023-11-14T18:10:35.146Z,0.82
2023-11-14T18:13:02.439Z,0.70
2023-11-14T18:15:31.145Z,0.93
2023-11-14T18:17:59.454Z,1.00
2023-11-14T18:20:30.062Z,0.85
2023-11-14T18:22:57.108Z,1.10
2023-11-14T18:25:24.245Z,0.90
2023-11-14T18:27:51.190Z,0.90
2023-11-14T18:30:18.332Z,1.30
2023-11-14T18:32:47.627Z,1.40
2023-11-14T18:35:15.329Z,2.10
2023-11-14T18:37:42.287Z,0.93
2023-11-14T18:40:10.897Z,1.63
2023-11-14T18:42:38.193Z,1.80
2023-11-14T18:45:08.161Z,0.70
2023-11-14T18:47:38.888Z,1.10
2023-11-14T18:50:07.102Z,0.90
2023-11-14T18:52:34.345Z,0.80
2023-11-14T18:55:01.588Z,1.00
2023-11-14T18:57:28.580Z,1.00
2023-11-14T18:59:56.680Z,0.90
2023-11-14T19:02:29.076Z,1.33
2023-11-14T19:04:56.405Z,1.10
2023-11-14T19:07:27.578Z,1.35
2023-11-14T19:09:55.721Z,1.10
2023-11-14T19:12:24.441Z,0.80
2023-11-14T19:14:53.085Z,0.80
2023-11-14T19:17:21.437Z,0.90
2023-11-14T19:19:48.941Z,1.10
2023-11-14T19:22:42.634Z,1.00
2023-11-14T19:27:31.960Z,0.80
2023-11-14T19:29:59.159Z,0.60
2023-11-14T19:32:26.327Z,0.80
2023-11-14T19:34:53.613Z,0.60
2023-11-14T19:37:20.454Z,0.60
2023-11-14T19:39:47.373Z,0.80
2023-11-14T19:42:16.623Z,0.60
2023-11-14T19:44:44.777Z,0.70
2023-11-14T19:47:11.799Z,0.80
2023-11-14T19:49:44.999Z,0.50
2023-11-14T19:52:14.114Z,0.60
2023-11-14T19:54:41.277Z,0.60
2023-11-14T19:57:09.184Z,0.60
2023-11-14T19:59:37.158Z,0.80
2023-11-14T20:02:04.688Z,0.70
2023-11-14T20:04:31.764Z,1.10
2023-11-14T20:06:59.200Z,1.60
2023-11-14T20:09:26.491Z,1.70
2023-11-14T20:11:55.650Z,1.20
2023-11-14T20:14:23.436Z,1.90
2023-11-14T20:16:50.639Z,1.73
2023-11-14T20:19:18.646Z,1.60
2023-11-14T20:21:46.080Z,1.10
2023-11-14T20:24:13.312Z,2.05
2023-11-14T20:26:43.339Z,1.33
2023-11-14T20:29:10.479Z,1.17
2023-11-14T20:31:37.716Z,0.90
2023-11-14T20:34:04.666Z,1.08
2023-11-14T20:36:32.449Z,0.70
2023-11-14T20:39:00.281Z,0.93
2023-11-14T20:41:28.303Z,2.30
2023-11-14T20:43:55.945Z,2.38
2023-11-14T20:46:24.747Z,1.40
2023-11-14T20:48:52.436Z,1.40
2023-11-14T20:51:25.214Z,1.40
2023-11-14T20:53:56.207Z,1.10
2023-11-14T20:56:26.481Z,1.30
2023-11-14T20:58:54.130Z,1.30
2023-11-14T21:01:21.692Z,1.42
2023-11-14T21:03:48.758Z,1.40
2023-11-14T21:06:15.734Z,1.00
2023-11-14T21:08:43.647Z,1.30
2023-11-14T21:11:11.230Z,1.10
2023-11-14T21:13:38.744Z,1.15
2023-11-14T21:16:06.436Z,1.00
2023-11-14T21:18:33.755Z,0.70
2023-11-14T21:21:00.619Z,0.90
2023-11-14T21:23:27.795Z,1.40
2023-11-14T21:25:54.618Z,1.40
2023-11-14T21:28:21.917Z,0.90
2023-11-14T21:30:57.304Z,1.00
2023-11-14T21:33:28.855Z,0.90
2023-11-14T21:35:55.861Z,0.90
2023-11-14T21:38:23.156Z,1.33
2023-11-14T21:40:50.180Z,1.20
2023-11-14T21:43:17.025Z,0.90
2023-11-14T21:45:44.083Z,0.90
2023-11-14T21:48:11.181Z,1.10
2023-11-14T21:50:38.275Z,1.00
2023-11-14T21:53:05.184Z,1.10
2023-11-14T21:55:32.187Z,1.00
2023-11-14T21:57:59.023Z,1.00
2023-11-14T22:00:25.982Z,1.00
2023-11-14T22:02:53.187Z,0.85
2023-11-14T22:05:20.358Z,1.07
2023-11-14T22:07:47.239Z,1.00
2023-11-14T22:10:14.443Z,1.00
2023-11-14T22:12:41.487Z,1.00
2023-11-14T22:15:09.456Z,1.05
2023-11-14T22:17:37.317Z,1.27
2023-11-14T22:20:05.646Z,0.90
2023-11-14T22:22:32.575Z,1.10
2023-11-14T22:24:59.436Z,1.65
2023-11-14T22:27:26.312Z,1.20
2023-11-14T22:29:58.163Z,2.20
2023-11-14T22:32:26.920Z,1.10
2023-11-14T22:34:54.119Z,1.17
2023-11-14T22:37:22.971Z,1.10
2023-11-14T22:39:49.900Z,1.10
2023-11-14T22:42:16.848Z,1.00
2023-11-14T22:44:43.849Z,1.20
2023-11-14T22:47:10.704Z,1.40
2023-11-14T22:49:38.086Z,1.00
2023-11-14T22:52:05.253Z,1.30
2023-11-14T22:54:32.146Z,1.30
2023-11-14T22:56:59.475Z,1.00
2023-11-14T22:59:26.438Z,1.40
2023-11-14T23:01:53.939Z,1.20
2023-11-14T23:04:20.866Z,1.00
2023-11-14T23:06:47.671Z,1.10
2023-11-14T23:09:17.361Z,1.10
2023-11-14T23:11:45.820Z,1.33
2023-11-14T23:14:13.637Z,1.00
2023-11-14T23:16:44.560Z,1.10
2023-11-14T23:19:11.500Z,0.90
2023-11-14T23:21:43.036Z,0.70
2023-11-14T23:24:16.220Z,1.02
2023-11-14T23:26:43.391Z,1.50
2023-11-14T23:29:10.240Z,1.05
2023-11-14T23:31:37.177Z,1.00
2023-11-14T23:34:05.009Z,1.40
2023-11-14T23:36:31.876Z,0.80
2023-11-14T23:38:58.888Z,1.00
2023-11-14T23:41:27.227Z,1.00
2023-11-14T23:43:54.346Z,0.70
2023-11-14T23:46:23.846Z,0.80
2023-11-14T23:48:51.789Z,0.90
2023-11-14T23:51:19.137Z,1.00
2023-11-14T23:53:46.425Z,1.00
2023-11-14T23:56:13.886Z,1.00
2023-11-14T23:58:41.084Z,0.88
